Time;durP1;ratioP1;P1;durP2;ratioP2;P2;SDS_P1;SDS_P2;PMS_P1;PMS_P2;Temp;Humidity;BMP_temperature;BMP_pressure;BME280_temperature;BME280_humidity;BME280_pressure;Samples;Min_cycle;Max_cycle;Signal;HPM_P1;HPM_P2
2022/01/09 00:00:08;;;;;;;16.83;14.15;;;;;;;-0.17;100.00;94778.72;6204685;22;20356;-62
2022/01/09 00:02:34;;;;;;;28.27;20.90;;;;;;;-0.05;100.00;94776.25;6208707;23;20004;-62
2022/01/09 00:04:59;;;;;;;27.55;23.25;;;;;;;0.05;100.00;94777.34;6208737;23;20001;-62
2022/01/09 00:07:24;;;;;;;28.45;25.10;;;;;;;-0.11;100.00;94768.91;6208557;23;20404;-62
2022/01/09 00:09:50;;;;;;;24.15;21.55;;;;;;;0.00;100.00;94766.47;6208554;23;20012;-62
2022/01/09 00:12:15;;;;;;;23.48;20.95;;;;;;;-0.25;100.00;94768.03;6207145;23;20045;-62
2022/01/09 00:14:41;;;;;;;25.77;21.27;;;;;;;-0.11;100.00;94761.13;6207015;23;20065;-62
2022/01/09 00:17:06;;;;;;;23.02;20.63;;;;;;;-0.21;100.00;94750.56;6208303;23;20004;-62
2022/01/09 00:19:31;;;;;;;21.75;19.38;;;;;;;-0.37;100.00;94745.53;6207586;23;20062;-62
2022/01/09 00:21:57;;;;;;;23.13;20.30;;;;;;;-0.46;100.00;94736.63;6208520;23;20008;-62
2022/01/09 00:24:22;;;;;;;20.77;18.67;;;;;;;-0.45;100.00;94741.66;6208188;23;20741;-62
2022/01/09 00:26:48;;;;;;;19.65;17.67;;;;;;;-0.58;100.00;94736.47;6208419;23;20462;-62
2022/01/09 00:29:14;;;;;;;21.77;19.55;;;;;;;-0.55;100.00;94717.34;6209068;23;20004;-62
2022/01/09 00:31:39;;;;;;;20.02;17.92;;;;;;;-0.48;100.00;94730.72;6208882;23;20008;-62
2022/01/09 00:34:05;;;;;;;20.75;17.38;;;;;;;-0.59;100.00;94731.41;6209104;23;20008;-62
2022/01/09 00:36:31;;;;;;;31.08;22.38;;;;;;;-0.61;100.00;94723.72;6209171;23;20093;-62
2022/01/09 00:38:57;;;;;;;25.80;19.80;;;;;;;-0.62;100.00;94731.59;6209121;23;20004;-62
2022/01/09 00:41:22;;;;;;;21.77;18.92;;;;;;;-0.63;100.00;94704.09;6209101;23;20513;-62
2022/01/09 00:43:48;;;;;;;21.58;19.27;;;;;;;-0.59;100.00;94729.63;6208742;23;20005;-62
2022/01/09 00:46:13;;;;;;;23.13;20.67;;;;;;;-0.61;100.00;94747.00;6208855;23;20004;-62
2022/01/09 00:48:38;;;;;;;21.25;18.95;;;;;;;-0.57;100.00;94760.56;6209048;23;20321;-62
2022/01/09 00:51:04;;;;;;;21.70;19.45;;;;;;;-0.55;100.00;94763.03;6209041;23;20013;-62
2022/01/09 00:53:29;;;;;;;25.02;21.50;;;;;;;-0.49;100.00;94779.00;6207319;23;20009;-62
2022/01/09 00:55:54;;;;;;;23.15;20.33;;;;;;;-0.25;100.00;94791.31;6208736;23;20017;-62
2022/01/09 00:58:20;;;;;;;18.75;16.88;;;;;;;-0.09;100.00;94801.53;6208344;23;20340;-61
2022/01/09 01:00:45;;;;;;;21.15;18.80;;;;;;;-0.18;100.00;94815.88;6208977;23;20317;-62
2022/01/09 01:03:11;;;;;;;21.25;17.52;;;;;;;-0.19;100.00;94828.91;6208768;23;20005;-62
2022/01/09 01:05:36;;;;;;;17.23;15.55;;;;;;;-0.25;100.00;94845.63;6208681;23;20011;-62
2022/01/09 01:08:02;;;;;;;13.00;11.88;;;;;;;-0.37;100.00;94856.75;6208815;23;20137;-62
2022/01/09 01:10:28;;;;;;;12.75;11.55;;;;;;;-0.16;100.00;94859.75;6208883;23;20004;-61
2022/01/09 01:12:53;;;;;;;13.52;12.20;;;;;;;-0.10;100.00;94877.50;6208791;23;20444;-61
2022/01/09 01:15:19;;;;;;;10.38;9.48;;;;;;;0.04;100.00;94905.09;6208716;23;20011;-61
2022/01/09 01:17:45;;;;;;;12.25;11.13;;;;;;;0.04;100.00;94927.53;6208836;23;20013;-62
2022/01/09 01:20:11;;;;;;;11.23;10.13;;;;;;;0.02;100.00;94893.16;6207497;23;20467;-62
2022/01/09 01:22:38;;;;;;;10.75;9.85;;;;;;;0.02;100.00;94896.59;6208775;23;19997;-62
2022/01/09 01:25:05;;;;;;;11.98;10.98;;;;;;;-0.01;100.00;94900.19;6208692;23;20009;-62
2022/01/09 01:27:31;;;;;;;12.43;11.23;;;;;;;0.07;100.00;94899.72;6208750;22;20580;-62
2022/01/09 01:29:56;;;;;;;14.52;13.18;;;;;;;-0.05;100.00;94885.78;6208119;23;20035;-62
2022/01/09 01:32:22;;;;;;;9.23;8.43;;;;;;;0.03;100.00;94894.81;6208239;23;20004;-62
2022/01/09 01:34:48;;;;;;;8.88;8.10;;;;;;;-0.01;100.00;94902.78;6207910;23;20027;-62
2022/01/09 01:37:14;;;;;;;10.60;9.60;;;;;;;0.02;100.00;94901.78;6208744;23;20431;-62
2022/01/09 01:39:39;;;;;;;10.63;9.68;;;;;;;0.04;100.00;94883.53;6208738;23;20005;-62
2022/01/09 01:42:05;;;;;;;10.05;9.18;;;;;;;0.13;100.00;94898.50;6208759;23;20389;-62
2022/01/09 01:44:42;;;;;;;9.60;8.82;;;;;;;0.16;100.00;94898.31;6208540;23;20005;-62
2022/01/09 01:47:07;;;;;;;9.50;8.60;;;;;;;0.22;100.00;94887.53;6207001;23;20068;-62
2022/01/09 01:49:33;;;;;;;8.30;7.65;;;;;;;0.13;100.00;94880.38;6208488;23;20449;-62
2022/01/09 01:51:59;;;;;;;8.93;8.13;;;;;;;0.12;100.00;94881.31;6208692;23;20008;-62
2022/01/09 01:54:25;;;;;;;8.88;8.00;;;;;;;0.11;100.00;94877.03;6208526;23;20075;-62
2022/01/09 01:56:51;;;;;;;10.85;8.40;;;;;;;0.11;100.00;94874.44;6208984;23;20091;-62
2022/01/09 01:59:16;;;;;;;8.93;8.10;;;;;;;0.09;100.00;94873.72;6209736;23;20369;-62
2022/01/09 02:01:42;;;;;;;9.48;8.63;;;;;;;0.10;100.00;94876.22;6209830;23;20009;-62
2022/01/09 02:04:07;;;;;;;9.35;8.55;;;;;;;0.12;100.00;94874.34;6209807;23;20007;-62
2022/01/09 02:06:34;;;;;;;9.48;8.60;;;;;;;0.19;100.00;94876.53;6209519;23;20058;-62
2022/01/09 02:09:00;;;;;;;9.50;8.65;;;;;;;0.15;100.00;94881.09;6210020;22;20009;-61
2022/01/09 02:11:26;;;;;;;8.23;7.53;;;;;;;0.12;100.00;94895.06;6209744;23;20064;-62
2022/01/09 02:13:52;;;;;;;8.05;7.25;;;;;;;0.13;100.00;94904.50;6209885;23;20005;-62
2022/01/09 02:16:18;;;;;;;8.55;7.82;;;;;;;0.19;100.00;94913.63;6208086;23;20009;-62
2022/01/09 02:18:45;;;;;;;8.45;7.72;;;;;;;0.25;100.00;94933.13;6209797;23;20012;-62
2022/01/09 02:21:12;;;;;;;7.93;7.22;;;;;;;0.69;100.00;94962.28;6209853;23;20035;-62
2022/01/09 02:23:41;;;;;;;12.18;10.75;;;;;;;0.57;100.00;94971.66;6209661;23;20403;-62
2022/01/09 02:26:07;;;;;;;10.13;9.00;;;;;;;0.58;100.00;94981.09;6210135;23;20019;-62
2022/01/09 02:28:32;;;;;;;5.68;3.60;;;;;;;1.02;100.00;95005.09;6209566;23;20032;-62
2022/01/09 02:30:57;;;;;;;4.03;3.50;;;;;;;1.63;100.00;95004.50;6209417;23;20009;-60
2022/01/09 02:33:23;;;;;;;3.00;2.70;;;;;;;1.72;100.00;94997.84;6209532;23;20083;-61
2022/01/09 02:35:51;;;;;;;2.92;2.72;;;;;;;1.60;100.00;95004.72;6209748;23;20036;-61
2022/01/09 02:38:17;;;;;;;4.00;2.30;;;;;;;1.42;100.00;94992.03;6209655;23;20015;-61
2022/01/09 02:40:43;;;;;;;2.63;2.42;;;;;;;1.29;100.00;95001.59;6209717;23;20039;-61
2022/01/09 02:43:08;;;;;;;2.90;2.70;;;;;;;1.39;100.00;95013.00;6209925;23;20089;-61
2022/01/09 02:45:34;;;;;;;4.18;3.20;;;;;;;1.29;100.00;95022.34;6209194;23;20572;-61
2022/01/09 02:48:01;;;;;;;4.18;3.15;;;;;;;1.20;100.00;95028.97;6209737;23;20011;-61
2022/01/09 02:53:01;;;;;;;2.85;2.70;;;;;;;1.26;100.00;95051.91;6209908;23;20095;-61
2022/01/09 02:55:28;;;;;;;3.22;2.25;;;;;;;1.02;100.00;95040.53;6209142;23;20397;-61
2022/01/09 02:57:57;;;;;;;3.15;2.25;;;;;;;0.91;100.00;95038.63;6209615;23;20000;-62
2022/01/09 03:00:22;;;;;;;2.67;2.33;;;;;;;0.81;100.00;95043.56;6208735;23;20450;-61
2022/01/09 03:02:48;;;;;;;2.25;2.15;;;;;;;0.72;100.00;95052.75;6209638;23;20001;-61
2022/01/09 03:05:14;;;;;;;3.08;2.45;;;;;;;0.66;100.00;95064.38;6209176;23;20005;-61
2022/01/09 03:07:41;;;;;;;3.53;2.53;;;;;;;0.67;100.00;95052.22;6208851;23;20058;-61
2022/01/09 03:10:07;;;;;;;1.92;1.83;;;;;;;0.70;100.00;95062.41;6209627;23;20505;-61
2022/01/09 03:12:33;;;;;;;3.47;2.95;;;;;;;0.72;100.00;95068.31;6209619;22;20041;-61
2022/01/09 03:14:59;;;;;;;2.03;1.92;;;;;;;0.75;100.00;95062.13;6209332;23;20012;-61
2022/01/09 03:17:25;;;;;;;2.25;2.13;;;;;;;0.80;100.00;95071.25;6209077;23;20095;-61
2022/01/09 03:19:51;;;;;;;2.13;1.88;;;;;;;0.77;100.00;95071.44;6209790;23;20134;-61
2022/01/09 03:22:16;;;;;;;1.85;1.77;;;;;;;0.71;100.00;95079.59;6209365;23;20004;-61
2022/01/09 03:24:42;;;;;;;1.60;1.60;;;;;;;0.64;100.00;95086.94;6209378;23;20027;-61
2022/01/09 03:27:09;;;;;;;1.90;1.80;;;;;;;0.61;100.00;95081.94;6208798;23;20008;-61
2022/01/09 03:29:34;;;;;;;1.92;1.83;;;;;;;0.60;100.00;95089.81;6209075;23;20447;-61
2022/01/09 03:32:00;;;;;;;2.00;1.90;;;;;;;0.61;100.00;95092.31;6208079;23;20005;-61
2022/01/09 03:34:26;;;;;;;1.73;1.63;;;;;;;0.61;100.00;95099.25;6208954;23;20007;-61
2022/01/09 03:36:51;;;;;;;1.80;1.70;;;;;;;0.58;100.00;95100.28;6209266;23;20011;-61
2022/01/09 03:39:16;;;;;;;1.90;1.80;;;;;;;0.53;100.00;95103.13;6209431;23;20718;-62
2022/01/09 03:41:42;;;;;;;2.17;2.08;;;;;;;0.53;100.00;95100.53;6209333;23;20008;-61
2022/01/09 03:44:07;;;;;;;2.25;2.10;;;;;;;0.54;100.00;95103.97;6209204;23;20011;-62
2022/01/09 03:46:32;;;;;;;2.22;2.13;;;;;;;0.53;100.00;95097.13;6207522;23;20425;-61
2022/01/09 03:48:58;;;;;;;1.95;1.85;;;;;;;0.50;100.00;95085.19;6209625;23;20004;-61
2022/01/09 03:51:26;;;;;;;2.47;2.28;;;;;;;0.49;100.00;95101.66;6209319;23;20020;-61
2022/01/09 03:53:52;;;;;;;2.00;1.90;;;;;;;0.46;100.00;95101.03;6209463;23;20008;-61
2022/01/09 03:56:17;;;;;;;3.47;2.78;;;;;;;0.75;100.00;95101.81;6208997;23;20364;-61
2022/01/09 03:58:43;;;;;;;3.50;3.15;;;;;;;0.76;100.00;95093.09;6209205;23;20040;-61
2022/01/09 04:01:08;;;;;;;3.25;2.72;;;;;;;0.64;100.00;95091.28;6209565;23;20378;-61
2022/01/09 04:03:35;;;;;;;5.60;3.53;;;;;;;0.59;100.00;95080.41;6208974;23;20001;-61
2022/01/09 04:06:01;;;;;;;6.60;3.72;;;;;;;0.56;100.00;95071.88;6209288;23;20009;-61
2022/01/09 04:08:27;;;;;;;3.25;2.95;;;;;;;0.51;100.00;95067.91;6209120;23;20012;-61
2022/01/09 04:10:53;;;;;;;3.08;2.78;;;;;;;0.48;100.00;95055.16;6207732;23;20013;-61
2022/01/09 04:13:18;;;;;;;2.47;2.15;;;;;;;0.52;100.00;95034.13;6208881;23;20011;-61
2022/01/09 04:15:49;;;;;;;3.80;2.63;;;;;;;0.52;100.00;95023.75;6209102;23;20321;-62
2022/01/09 04:18:19;;;;;;;4.05;2.33;;;;;;;0.70;100.00;95034.75;6208756;23;20009;-61
2022/01/09 04:20:45;;;;;;;4.05;2.88;;;;;;;0.80;100.00;95026.38;6209362;23;20053;-61
2022/01/09 04:23:12;;;;;;;2.97;2.50;;;;;;;0.83;100.00;95045.16;6209242;23;20001;-61
2022/01/09 04:25:38;;;;;;;2.70;2.50;;;;;;;0.65;100.00;95047.13;6208578;23;20008;-61
2022/01/09 04:28:04;;;;;;;3.50;2.45;;;;;;;0.61;100.00;95063.00;6207650;23;20012;-61
2022/01/09 04:30:29;;;;;;;4.35;2.58;;;;;;;0.52;100.00;95072.97;6209003;23;20004;-61
2022/01/09 04:32:55;;;;;;;3.63;2.83;;;;;;;0.48;100.00;95079.28;6209373;23;20015;-61
2022/01/09 04:35:20;;;;;;;6.95;2.60;;;;;;;0.46;100.00;95099.28;6209319;23;20032;-62
2022/01/09 04:37:47;;;;;;;3.38;2.05;;;;;;;0.45;100.00;95120.91;6209082;23;20401;-61
2022/01/09 04:40:15;;;;;;;6.90;2.30;;;;;;;0.40;100.00;95115.19;6208918;23;20043;-61
2022/01/09 04:42:45;;;;;;;2.38;2.05;;;;;;;0.46;100.00;95119.19;6208966;23;20000;-61
2022/01/09 04:45:13;;;;;;;7.22;2.25;;;;;;;0.49;100.00;95117.22;6208973;23;20107;-61
2022/01/09 04:47:42;;;;;;;2.85;2.35;;;;;;;0.42;100.00;95119.34;6208777;23;20011;-61
2022/01/09 04:50:13;;;;;;;2.83;2.17;;;;;;;0.56;100.00;95115.09;6209237;23;20004;-61
2022/01/09 04:52:39;;;;;;;3.40;2.00;;;;;;;0.45;100.00;95128.69;6208857;23;20028;-61
2022/01/09 04:55:06;;;;;;;3.88;2.45;;;;;;;0.40;100.00;95131.56;6208879;23;20050;-61
2022/01/09 04:57:31;;;;;;;6.18;2.40;;;;;;;0.59;100.00;95114.88;6208742;23;20084;-61
2022/01/09 04:59:56;;;;;;;3.88;2.60;;;;;;;0.69;100.00;95135.88;6209269;23;20028;-61
2022/01/09 05:02:22;;;;;;;3.80;2.95;;;;;;;0.39;100.00;95129.88;6208904;23;20332;-61
2022/01/09 05:04:47;;;;;;;2.75;2.53;;;;;;;0.26;100.00;95131.56;6208960;23;20000;-61
2022/01/09 05:07:14;;;;;;;5.03;2.55;;;;;;;0.26;100.00;95137.56;6208890;23;20015;-61
2022/01/09 05:09:39;;;;;;;3.22;2.95;;;;;;;0.59;100.00;95135.59;6208718;23;20064;-61
2022/01/09 05:12:05;;;;;;;8.20;3.35;;;;;;;0.59;100.00;95134.78;6208878;23;20420;-61
2022/01/09 05:14:30;;;;;;;3.10;2.78;;;;;;;0.39;100.00;95126.47;6208646;23;20012;-61
2022/01/09 05:16:55;;;;;;;6.78;2.63;;;;;;;0.57;100.00;95121.91;6208757;23;20027;-61
2022/01/09 05:19:28;;;;;;;5.25;3.30;;;;;;;0.46;100.00;95122.59;6208983;23;20000;-61
2022/01/09 05:21:54;;;;;;;3.10;2.67;;;;;;;0.35;100.00;95125.84;6208841;23;20343;-61
2022/01/09 05:24:20;;;;;;;3.50;3.15;;;;;;;0.30;100.00;95122.69;6208740;23;20001;-61
2022/01/09 05:26:45;;;;;;;5.10;2.95;;;;;;;0.32;100.00;95127.75;6208666;23;20016;-61
2022/01/09 05:29:11;;;;;;;3.30;2.65;;;;;;;0.27;100.00;95128.06;6208780;23;20066;-61
2022/01/09 05:31:36;;;;;;;7.93;4.00;;;;;;;0.23;100.00;95111.88;6207928;23;19996;-61
2022/01/09 05:34:02;;;;;;;5.20;3.20;;;;;;;0.18;100.00;95113.06;6206905;23;20005;-61
2022/01/09 05:36:28;;;;;;;3.05;2.78;;;;;;;0.17;100.00;95119.16;6208582;23;20141;-61
2022/01/09 05:38:54;;;;;;;8.18;3.90;;;;;;;0.14;100.00;95115.03;6208705;23;20487;-61
2022/01/09 05:41:19;;;;;;;8.15;4.07;;;;;;;0.13;100.00;95118.53;6208604;23;20000;-61
2022/01/09 05:43:44;;;;;;;7.10;3.38;;;;;;;0.10;100.00;95111.78;6208597;23;20005;-61
2022/01/09 05:46:11;;;;;;;8.27;4.30;;;;;;;0.10;100.00;95109.19;6208705;23;20352;-61
2022/01/09 05:48:36;;;;;;;9.00;4.15;;;;;;;0.11;100.00;95107.41;6208244;23;20009;-61
2022/01/09 05:51:02;;;;;;;8.00;4.43;;;;;;;0.07;100.00;95104.19;6208654;23;20057;-61
2022/01/09 05:53:27;;;;;;;10.25;7.18;;;;;;;0.02;100.00;95098.47;6208475;23;20325;-62
2022/01/09 05:55:53;;;;;;;4.32;3.95;;;;;;;0.49;100.00;95091.31;6208470;23;20021;-61
2022/01/09 05:58:18;;;;;;;14.80;9.52;;;;;;;0.46;100.00;95094.09;6208322;23;20020;-61
2022/01/09 06:00:43;;;;;;;19.05;10.50;;;;;;;0.32;100.00;95094.09;6208384;23;20011;-61
2022/01/09 06:03:09;;;;;;;16.73;9.52;;;;;;;0.13;100.00;95095.25;6207519;23;20432;-61
2022/01/09 06:05:34;;;;;;;11.93;8.32;;;;;;;0.07;100.00;95095.59;6208074;23;20001;-61
2022/01/09 06:08:00;;;;;;;12.57;7.75;;;;;;;0.03;100.00;95094.13;6208494;23;20546;-61
2022/01/09 06:10:25;;;;;;;16.98;8.38;;;;;;;0.01;100.00;95086.47;6208158;23;20075;-61
2022/01/09 06:12:51;;;;;;;11.52;7.32;;;;;;;0.07;100.00;95091.25;6208350;23;20005;-61
2022/01/09 06:15:16;;;;;;;10.48;7.50;;;;;;;0.01;100.00;95083.03;6208332;23;20069;-61
2022/01/09 06:17:43;;;;;;;12.05;5.78;;;;;;;0.20;100.00;95082.72;6208174;23;20071;-61
2022/01/09 06:20:11;;;;;;;8.70;4.65;;;;;;;0.14;100.00;95086.56;6208510;23;20004;-61
2022/01/09 06:22:37;;;;;;;9.73;3.55;;;;;;;0.36;100.00;95077.47;6208085;23;20432;-61
2022/01/09 06:25:04;;;;;;;9.20;3.20;;;;;;;0.27;100.00;95079.69;6208234;23;20007;-62
2022/01/09 06:27:30;;;;;;;10.43;7.40;;;;;;;0.20;100.00;95086.16;6208083;23;20017;-61
2022/01/09 06:29:55;;;;;;;17.88;10.40;;;;;;;0.05;100.00;95075.00;6208273;23;20130;-61
2022/01/09 06:32:20;;;;;;;13.90;9.60;;;;;;;0.02;100.00;95069.16;6207927;23;20001;-61
2022/01/09 06:34:46;;;;;;;11.13;7.47;;;;;;;0.09;100.00;95073.03;6208078;23;20015;-61
2022/01/09 06:37:12;;;;;;;17.80;7.65;;;;;;;0.11;100.00;95090.16;6208509;23;20009;-61
2022/01/09 06:39:41;;;;;;;12.43;6.22;;;;;;;0.07;100.00;95090.41;6208034;23;20540;-61
2022/01/09 06:42:06;;;;;;;16.85;8.27;;;;;;;0.14;100.00;95123.59;6208904;23;20390;-61
2022/01/09 06:44:31;;;;;;;11.05;5.32;;;;;;;0.14;100.00;95139.16;6209554;23;20004;-61
2022/01/09 06:46:57;;;;;;;8.27;4.03;;;;;;;0.35;100.00;95158.69;6209519;23;20357;-60
2022/01/09 06:49:22;;;;;;;10.20;3.65;;;;;;;0.40;100.00;95148.88;6209686;23;20054;-61
2022/01/09 06:51:48;;;;;;;6.82;3.38;;;;;;;0.27;100.00;95154.78;6209419;23;20008;-61
2022/01/09 06:54:13;;;;;;;10.70;4.15;;;;;;;0.12;100.00;95155.72;6209660;23;20436;-61
2022/01/09 06:56:40;;;;;;;9.35;5.75;;;;;;;0.05;100.00;95164.75;6209067;23;20450;-61
2022/01/09 06:59:05;;;;;;;9.18;5.57;;;;;;;-0.01;100.00;95166.78;6209612;23;20004;-61
2022/01/09 07:01:31;;;;;;;10.35;5.10;;;;;;;-0.06;100.00;95176.56;6207706;23;20034;-61
2022/01/09 07:03:56;;;;;;;4.13;3.60;;;;;;;-0.08;100.00;95170.66;6209116;23;20007;-61
2022/01/09 07:06:21;;;;;;;4.30;2.53;;;;;;;-0.09;100.00;95170.72;6209263;23;20012;-61
2022/01/09 07:08:47;;;;;;;3.33;2.45;;;;;;;-0.24;100.00;95156.94;6209345;23;20004;-61
2022/01/09 07:11:12;;;;;;;2.85;2.55;;;;;;;-0.34;100.00;95152.28;6209504;23;20005;-61
2022/01/09 07:13:38;;;;;;;5.55;3.10;;;;;;;-0.36;100.00;95151.53;6209581;23;20016;-61
2022/01/09 07:16:03;;;;;;;4.40;3.63;;;;;;;-0.41;100.00;95143.22;6209791;23;20015;-60
2022/01/09 07:18:29;;;;;;;5.20;3.58;;;;;;;-0.51;100.00;95136.91;6209228;23;20017;-60
2022/01/09 07:20:54;;;;;;;6.53;4.78;;;;;;;-0.55;100.00;95138.00;6209433;23;20008;-61
2022/01/09 07:23:19;;;;;;;7.57;4.22;;;;;;;-0.55;100.00;95131.06;6209543;23;20386;-60
2022/01/09 07:25:45;;;;;;;6.97;4.45;;;;;;;-0.51;100.00;95122.22;6209244;23;20347;-60
2022/01/09 07:28:10;;;;;;;7.90;6.40;;;;;;;-0.46;100.00;95116.78;6209258;23;20033;-61
2022/01/09 07:30:36;;;;;;;8.27;6.82;;;;;;;-0.39;100.00;95117.28;6209267;23;20024;-61
2022/01/09 07:33:04;;;;;;;14.50;4.47;;;;;;;-0.40;100.00;95119.00;6209434;23;20005;-61
2022/01/09 07:35:30;;;;;;;3.60;3.30;;;;;;;-0.42;100.00;95118.28;6208849;23;20008;-61
2022/01/09 07:37:55;;;;;;;6.32;4.40;;;;;;;-0.39;100.00;95115.50;6209110;23;20011;-61
2022/01/09 07:40:21;;;;;;;8.07;7.25;;;;;;;-0.39;100.00;95125.84;6209134;23;20035;-61
2022/01/09 07:42:47;;;;;;;8.00;7.03;;;;;;;-0.40;100.00;95131.94;6209319;23;20000;-61
2022/01/09 07:45:13;;;;;;;9.35;7.72;;;;;;;-0.41;100.00;95132.06;6209315;23;20008;-61
2022/01/09 07:47:39;;;;;;;8.98;8.13;;;;;;;-0.42;100.00;95136.38;6209295;23;20005;-61
2022/01/09 07:50:06;;;;;;;9.30;8.50;;;;;;;-0.42;100.00;95136.38;6209700;23;20016;-60
2022/01/09 07:52:35;;;;;;;12.50;8.27;;;;;;;-0.40;100.00;95134.53;6209111;23;20004;-61
2022/01/09 07:55:02;;;;;;;9.70;7.78;;;;;;;-0.39;100.00;95131.03;6208659;23;20373;-61
2022/01/09 07:57:28;;;;;;;17.83;13.38;;;;;;;-0.39;100.00;95136.19;6209153;23;20039;-61
2022/01/09 07:59:55;;;;;;;17.75;16.17;;;;;;;-0.38;100.00;95130.09;6209103;23;20004;-61
2022/01/09 08:02:20;;;;;;;8.70;7.90;;;;;;;-0.20;100.00;95135.13;6208289;23;20321;-61
2022/01/09 08:04:46;;;;;;;3.58;3.28;;;;;;;-0.16;100.00;95127.09;6208645;23;20008;-61
2022/01/09 08:07:11;;;;;;;9.48;8.05;;;;;;;-0.24;100.00;95144.81;6209030;23;20153;-61
2022/01/09 08:09:36;;;;;;;7.40;6.70;;;;;;;-0.29;100.00;95139.09;6209324;23;20004;-61
2022/01/09 08:12:02;;;;;;;7.45;6.00;;;;;;;-0.31;100.00;95141.78;6209482;23;20049;-61
2022/01/09 08:14:27;;;;;;;8.95;6.95;;;;;;;-0.31;100.00;95139.19;6206758;23;20448;-60
2022/01/09 08:16:53;;;;;;;13.30;9.82;;;;;;;-0.30;100.00;95129.66;6208495;23;20700;-61
2022/01/09 08:19:18;;;;;;;9.13;6.28;;;;;;;-0.28;100.00;95130.41;6207513;23;20032;-62
2022/01/09 08:21:43;;;;;;;6.07;4.80;;;;;;;-0.25;100.00;95121.63;6206795;23;20008;-61
2022/01/09 08:24:10;;;;;;;7.00;6.45;;;;;;;-0.22;100.00;95134.41;6206880;23;20020;-62
2022/01/09 08:26:35;;;;;;;12.65;8.35;;;;;;;-0.25;100.00;95132.00;6206725;23;20066;-62
2022/01/09 08:29:01;;;;;;;10.15;9.13;;;;;;;-0.27;100.00;95129.47;6206903;23;20008;-61
2022/01/09 08:31:27;;;;;;;8.40;7.60;;;;;;;-0.25;100.00;95121.63;6208280;23;20000;-61
2022/01/09 08:33:52;;;;;;;7.47;6.55;;;;;;;-0.24;100.00;95118.13;6207850;23;20005;-62
2022/01/09 08:36:17;;;;;;;7.25;6.55;;;;;;;-0.20;100.00;95119.59;6208123;23;20005;-62
2022/01/09 08:38:43;;;;;;;6.63;5.32;;;;;;;-0.16;100.00;95113.31;6207965;23;20396;-61
2022/01/09 08:41:08;;;;;;;6.63;5.93;;;;;;;-0.11;100.00;95113.06;6207474;23;20044;-61
2022/01/09 08:43:37;;;;;;;13.35;9.98;;;;;;;-0.10;100.00;95110.41;6208256;23;20005;-62
2022/01/09 08:46:03;;;;;;;9.75;8.43;;;;;;;-0.07;100.00;95107.63;6206938;23;20069;-61
2022/01/09 08:48:28;;;;;;;11.57;10.48;;;;;;;-0.07;100.00;95099.00;6207775;23;20007;-59
2022/01/09 08:50:54;;;;;;;11.30;10.20;;;;;;;-0.05;100.00;95095.41;6207263;23;20005;-59
2022/01/09 08:53:19;;;;;;;14.23;12.73;;;;;;;-0.04;100.00;95097.09;6208235;23;20062;-59
2022/01/09 08:55:45;;;;;;;13.70;12.27;;;;;;;0.02;100.00;95101.06;6207697;23;20399;-60
2022/01/09 08:58:10;;;;;;;8.00;7.07;;;;;;;0.07;100.00;95098.19;6206929;23;20036;-60
2022/01/09 09:00:36;;;;;;;7.70;6.70;;;;;;;0.10;100.00;95098.00;6207573;23;20005;-59
2022/01/09 09:03:01;;;;;;;6.35;5.65;;;;;;;0.13;100.00;95096.06;6207828;23;20474;-61
2022/01/09 09:05:26;;;;;;;11.25;6.80;;;;;;;0.21;100.00;95103.38;6208108;23;20332;-62
2022/01/09 09:07:52;;;;;;;9.00;6.38;;;;;;;0.25;100.00;95102.25;6208362;23;20079;-59
2022/01/09 09:10:17;;;;;;;9.57;5.80;;;;;;;0.28;100.00;95104.66;6208649;23;20050;-60
2022/01/09 09:12:43;;;;;;;13.23;7.82;;;;;;;0.31;100.00;95100.19;6208238;23;20071;-59
2022/01/09 09:15:09;;;;;;;11.02;9.23;;;;;;;0.35;100.00;95099.13;6208498;23;20013;-59
2022/01/09 09:17:35;;;;;;;12.07;10.88;;;;;;;0.34;100.00;95100.84;6207084;23;20088;-59
2022/01/09 09:20:00;;;;;;;20.67;15.93;;;;;;;0.34;100.00;95092.28;6207696;23;20009;-59
2022/01/09 09:22:26;;;;;;;17.27;15.50;;;;;;;0.34;100.00;95092.28;6207973;23;20000;-59
2022/01/09 09:24:52;;;;;;;18.60;15.95;;;;;;;0.46;100.00;95096.69;6207921;23;20005;-59
2022/01/09 09:27:19;;;;;;;26.10;20.15;;;;;;;0.45;100.00;95100.19;6208211;23;20444;-59
2022/01/09 09:29:45;;;;;;;25.63;22.80;;;;;;;0.43;100.00;95102.06;6208179;23;20004;-59
2022/01/09 09:32:10;;;;;;;25.15;22.27;;;;;;;0.46;100.00;95107.03;6208133;23;20328;-59
2022/01/09 09:34:39;;;;;;;22.33;17.40;;;;;;;0.61;100.00;95104.44;6207822;23;20009;-59
2022/01/09 09:37:05;;;;;;;25.38;19.50;;;;;;;0.59;100.00;95108.88;6207194;22;20047;-59
2022/01/09 09:39:30;;;;;;;24.17;20.83;;;;;;;0.50;100.00;95102.50;6208360;23;20348;-59
2022/01/09 09:41:55;;;;;;;33.53;24.65;;;;;;;0.48;100.00;95094.81;6208601;23;20083;-59
2022/01/09 09:44:21;;;;;;;31.13;27.70;;;;;;;0.48;100.00;95094.00;6208639;23;20074;-59
2022/01/09 09:46:50;;;;;;;35.13;29.02;;;;;;;0.48;100.00;95092.25;6208249;23;20055;-59
2022/01/09 09:49:16;;;;;;;39.05;30.63;;;;;;;0.50;100.00;95090.38;6208724;23;20004;-59
2022/01/09 09:51:42;;;;;;;36.83;28.92;;;;;;;0.54;100.00;95088.44;6208297;23;20001;-59
2022/01/09 09:54:08;;;;;;;34.42;30.48;;;;;;;0.59;100.00;95099.34;6208828;23;20004;-59
2022/01/09 09:56:33;;;;;;;40.65;33.10;;;;;;;0.67;100.00;95099.72;6208072;23;20031;-60
2022/01/09 09:59:00;;;;;;;41.30;31.15;;;;;;;0.74;100.00;95094.97;6208043;23;20432;-60
2022/01/09 10:01:32;;;;;;;30.30;23.95;;;;;;;0.80;100.00;95091.16;6207824;23;20004;-60
2022/01/09 10:04:08;;;;;;;25.70;18.45;;;;;;;0.84;100.00;95087.44;6206634;23;20005;-61
2022/01/09 10:06:38;;;;;;;24.80;21.83;;;;;;;0.81;100.00;95083.28;6206765;23;20009;-61
2022/01/09 10:09:14;;;;;;;22.55;19.90;;;;;;;0.84;100.00;95084.84;6208185;23;20008;-61
2022/01/09 10:11:50;;;;;;;24.40;18.50;;;;;;;0.89;100.00;95082.81;6205999;23;20355;-61
2022/01/09 10:14:17;;;;;;;31.42;25.25;;;;;;;0.96;100.00;95075.44;6207486;23;20374;-60
2022/01/09 10:17:05;;;;;;;27.30;24.45;;;;;;;1.02;100.00;95069.91;6207388;23;19997;-60
2022/01/09 10:20:02;;;;;;;22.25;17.92;;;;;;;1.08;100.00;95066.91;6208179;23;20046;-60
2022/01/09 10:22:34;;;;;;;17.00;14.30;;;;;;;1.14;100.00;95074.28;6206798;23;20062;-60
2022/01/09 10:25:18;;;;;;;18.98;14.90;;;;;;;1.15;100.00;95077.72;6208783;23;20075;-60
2022/01/09 10:27:44;;;;;;;16.00;14.32;;;;;;;1.16;100.00;95076.78;6208296;23;20448;-60
2022/01/09 10:30:11;;;;;;;18.67;15.05;;;;;;;1.11;100.00;95071.88;6208984;23;20023;-61
2022/01/09 10:32:36;;;;;;;30.00;22.77;;;;;;;1.05;100.00;95069.69;6209332;23;20084;-61
2022/01/09 10:35:19;;;;;;;17.10;13.00;;;;;;;1.00;100.00;95079.53;6208765;23;20451;-60
2022/01/09 10:37:50;;;;;;;11.25;6.60;;;;;;;1.01;100.00;95081.19;6208701;23;20032;-60
2022/01/09 10:40:21;;;;;;;9.95;7.75;;;;;;;1.05;100.00;95076.63;6209061;23;20088;-60
2022/01/09 10:43:06;;;;;;;14.25;10.27;;;;;;;1.06;100.00;95073.94;6207855;23;20008;-61
2022/01/09 10:45:33;;;;;;;11.00;7.43;;;;;;;1.09;100.00;95078.94;6207332;23;20043;-60
2022/01/09 10:48:04;;;;;;;17.00;9.90;;;;;;;1.08;100.00;95072.09;6208238;23;20397;-60
2022/01/09 10:50:33;;;;;;;28.15;17.13;;;;;;;1.10;100.00;95071.97;6209846;23;19997;-60
2022/01/09 10:53:19;;;;;;;13.02;7.93;;;;;;;1.17;100.00;95065.47;6209467;23;20085;-60
2022/01/09 10:55:48;;;;;;;9.10;4.32;;;;;;;1.10;100.00;95053.81;6209213;23;20363;-61
2022/01/09 10:58:22;;;;;;;15.27;8.68;;;;;;;1.28;100.00;95049.22;6209475;23;20039;-60
2022/01/09 11:01:06;;;;;;;14.50;9.82;;;;;;;1.22;100.00;95034.06;6207141;23;20008;-60
2022/01/09 11:03:31;;;;;;;12.90;6.82;;;;;;;1.30;100.00;95042.16;6209001;23;20017;-60
2022/01/09 11:05:59;;;;;;;16.92;8.35;;;;;;;1.42;100.00;95043.94;6208904;23;20009;-59
2022/01/09 11:08:25;;;;;;;14.35;7.93;;;;;;;1.43;100.00;95044.78;6209171;23;20004;-60
2022/01/09 11:10:50;;;;;;;13.20;6.88;;;;;;;1.46;100.00;95038.56;6209155;23;20008;-60
2022/01/09 11:13:17;;;;;;;15.98;7.88;;;;;;;1.54;100.00;95036.28;6208956;23;20324;-60
2022/01/09 11:16:32;;;;;;;14.00;7.05;;;;;;;1.54;100.00;95038.88;6209341;23;20013;-60
2022/01/09 11:18:31;;;;;;;12.38;7.05;;;;;;;1.60;100.00;95029.84;6208944;23;20005;-59
2022/01/09 11:20:57;;;;;;;5.45;4.20;;;;;;;1.61;100.00;95031.50;6208075;23;20011;-60
2022/01/09 11:23:28;;;;;;;10.07;4.47;;;;;;;1.73;100.00;95029.84;6207015;23;20079;-61